createdAt,value
2022-11-14T00:00:47.840Z,11.90
2022-11-14T00:03:33.610Z,11.90
2022-11-14T00:06:19.876Z,11.90
2022-11-14T00:09:05.230Z,11.90
2022-11-14T00:11:50.668Z,11.90
2022-11-14T00:14:36.948Z,11.90
2022-11-14T00:17:23.397Z,11.80
2022-11-14T00:20:11.261Z,11.80
2022-11-14T00:22:57.383Z,11.80
2022-11-14T00:25:44.454Z,11.80
2022-11-14T00:28:30.284Z,11.80
2022-11-14T00:31:16.293Z,11.80
2022-11-14T00:34:02.160Z,11.80
2022-11-14T00:36:47.554Z,11.80
2022-11-14T00:39:33.134Z,11.90
2022-11-14T00:42:18.581Z,11.90
2022-11-14T00:45:04.456Z,11.90
2022-11-14T00:47:49.966Z,11.90
2022-11-14T00:50:35.736Z,11.90
2022-11-14T00:53:21.215Z,11.90
2022-11-14T00:56:07.209Z,11.90
2022-11-14T00:58:52.497Z,11.90
2022-11-14T01:01:37.974Z,11.90
2022-11-14T01:04:23.584Z,11.90
2022-11-14T01:07:09.772Z,11.90
2022-11-14T01:09:55.327Z,11.90
2022-11-14T01:12:40.798Z,11.80
2022-11-14T01:15:26.302Z,11.80
2022-11-14T01:18:14.359Z,11.80
2022-11-14T01:21:00.498Z,11.80
2022-11-14T01:23:46.407Z,11.70
2022-11-14T01:26:32.716Z,11.70
2022-11-14T01:29:18.187Z,11.70
2022-11-14T01:32:03.725Z,11.60
2022-11-14T01:34:49.275Z,11.60
2022-11-14T01:37:34.811Z,11.70
2022-11-14T01:40:20.752Z,11.70
2022-11-14T01:43:18.640Z,11.70
2022-11-14T01:46:35.620Z,11.60
2022-11-14T01:49:33.563Z,11.70
2022-11-14T01:52:24.490Z,11.70
2022-11-14T01:55:11.279Z,11.70
2022-11-14T01:57:59.454Z,11.60
2022-11-14T02:00:45.366Z,11.70
2022-11-14T02:03:33.502Z,11.70
2022-11-14T02:06:22.534Z,11.60
2022-11-14T02:09:08.471Z,11.60
2022-11-14T02:11:56.625Z,11.60
2022-11-14T02:14:47.720Z,11.60
2022-11-14T02:17:33.333Z,11.60
2022-11-14T02:20:29.676Z,11.70
2022-11-14T02:23:15.948Z,11.70
2022-11-14T02:26:01.480Z,11.60
2022-11-14T02:28:47.951Z,11.60
2022-11-14T02:31:35.161Z,11.70
2022-11-14T02:34:21.078Z,11.60
2022-11-14T02:37:07.321Z,11.70
2022-11-14T02:39:52.977Z,11.60
2022-11-14T02:42:38.285Z,11.60
2022-11-14T02:45:24.223Z,11.60
2022-11-14T02:48:09.719Z,11.60
2022-11-14T02:50:55.324Z,11.60
2022-11-14T02:53:41.047Z,11.50
2022-11-14T02:56:27.029Z,11.50
2022-11-14T02:59:12.973Z,11.50
2022-11-14T03:01:58.130Z,11.50
2022-11-14T03:04:43.766Z,11.50
2022-11-14T03:07:29.364Z,11.50
2022-11-14T03:10:14.997Z,11.50
2022-11-14T03:13:00.721Z,11.50
2022-11-14T03:15:47.092Z,11.50
2022-11-14T03:18:32.830Z,11.50
2022-11-14T03:21:22.946Z,11.50
2022-11-14T03:24:08.390Z,11.50
2022-11-14T03:26:53.760Z,11.50
2022-11-14T03:29:39.070Z,11.50
2022-11-14T03:32:24.660Z,11.50
2022-11-14T03:35:10.972Z,11.50
2022-11-14T03:37:56.941Z,11.60
2022-11-14T03:40:42.833Z,11.60
2022-11-14T03:43:32.654Z,11.60
2022-11-14T03:46:17.919Z,11.60
2022-11-14T03:49:03.394Z,11.60
2022-11-14T03:51:49.295Z,11.60
2022-11-14T03:54:34.407Z,11.50
2022-11-14T03:57:20.075Z,11.50
2022-11-14T04:00:05.968Z,11.50
2022-11-14T04:02:51.467Z,11.50
2022-11-14T04:05:37.317Z,11.50
2022-11-14T04:08:23.068Z,11.50
2022-11-14T04:11:08.879Z,11.50
2022-11-14T04:13:54.174Z,11.50
2022-11-14T04:16:39.830Z,11.50
2022-11-14T04:19:25.350Z,11.50
2022-11-14T04:22:11.336Z,11.50
2022-11-14T04:24:56.866Z,11.50
2022-11-14T04:27:42.020Z,11.40
2022-11-14T04:30:32.060Z,11.50
2022-11-14T04:33:19.866Z,11.40
2022-11-14T04:36:05.995Z,11.40
2022-11-14T04:38:51.350Z,11.40
2022-11-14T04:41:36.933Z,11.40
2022-11-14T04:44:22.632Z,11.40
2022-11-14T04:47:08.189Z,11.40
2022-11-14T04:49:53.712Z,11.40
2022-11-14T04:52:39.451Z,11.40
2022-11-14T04:55:25.015Z,11.40
2022-11-14T04:58:10.617Z,11.40
2022-11-14T05:00:57.945Z,11.50
2022-11-14T05:03:43.650Z,11.50
2022-11-14T05:06:29.151Z,11.50
2022-11-14T05:09:14.620Z,11.50
2022-11-14T05:12:00.206Z,11.50
2022-11-14T05:14:45.542Z,11.50
2022-11-14T05:17:31.554Z,11.50
2022-11-14T05:20:17.140Z,11.40
2022-11-14T05:23:02.809Z,11.40
2022-11-14T05:25:58.842Z,11.40
2022-11-14T05:28:44.594Z,11.50
2022-11-14T05:31:29.911Z,11.50
2022-11-14T05:34:15.158Z,11.50
2022-11-14T05:37:00.672Z,11.50
2022-11-14T05:39:46.062Z,11.50
2022-11-14T05:42:31.707Z,11.50
2022-11-14T05:45:17.103Z,11.50
2022-11-14T05:48:02.599Z,11.60
2022-11-14T05:50:48.046Z,11.60
2022-11-14T05:53:40.162Z,11.60
2022-11-14T05:56:25.819Z,11.50
2022-11-14T05:59:11.379Z,11.50
2022-11-14T06:01:56.978Z,11.40
2022-11-14T06:04:42.582Z,11.40
2022-11-14T06:07:29.005Z,11.30
2022-11-14T06:10:14.560Z,11.10
2022-11-14T06:12:59.900Z,11.00
2022-11-14T06:15:45.284Z,11.00
2022-11-14T06:18:32.185Z,11.00
2022-11-14T06:21:20.091Z,11.10
2022-11-14T06:24:05.856Z,11.10
2022-11-14T06:26:51.473Z,11.20
2022-11-14T06:29:36.921Z,11.20
2022-11-14T06:32:22.257Z,11.20
2022-11-14T06:35:08.506Z,11.30
2022-11-14T06:37:54.285Z,11.30
2022-11-14T06:40:39.566Z,11.30
2022-11-14T06:43:25.126Z,11.40
2022-11-14T06:46:13.410Z,11.40
2022-11-14T06:48:58.718Z,11.40
2022-11-14T06:51:44.229Z,11.40
2022-11-14T06:54:29.438Z,11.40
2022-11-14T06:57:15.008Z,11.40
2022-11-14T07:00:00.674Z,11.40
2022-11-14T07:02:47.311Z,11.40
2022-11-14T07:05:32.826Z,11.40
2022-11-14T07:08:30.752Z,11.50
2022-11-14T07:11:26.439Z,11.50
2022-11-14T07:14:12.403Z,11.50
2022-11-14T07:16:58.683Z,11.60
2022-11-14T07:19:44.139Z,11.60
2022-11-14T07:22:29.738Z,11.60
2022-11-14T07:25:15.407Z,11.70
2022-11-14T07:28:00.840Z,11.70
2022-11-14T07:30:46.512Z,11.70
2022-11-14T07:33:32.942Z,11.80
2022-11-14T07:36:18.506Z,11.90
2022-11-14T07:39:04.141Z,11.90
2022-11-14T07:41:49.342Z,11.90
2022-11-14T07:44:34.858Z,11.90
2022-11-14T07:47:20.367Z,11.90
2022-11-14T07:50:06.302Z,11.90
2022-11-14T07:52:55.885Z,11.90
2022-11-14T07:55:41.687Z,11.90
2022-11-14T07:58:27.346Z,12.00
2022-11-14T08:01:14.719Z,12.00
2022-11-14T08:04:00.471Z,12.00
2022-11-14T08:06:46.284Z,12.10
2022-11-14T08:09:31.902Z,12.10
2022-11-14T08:12:17.482Z,12.20
2022-11-14T08:15:02.915Z,12.20
2022-11-14T08:17:48.339Z,12.30
2022-11-14T08:20:33.984Z,12.30
2022-11-14T08:23:19.449Z,12.40
2022-11-14T08:26:05.191Z,12.40
2022-11-14T08:28:54.471Z,12.50
2022-11-14T08:31:39.683Z,12.60
2022-11-14T08:34:25.906Z,12.60
2022-11-14T08:37:11.152Z,12.80
2022-11-14T08:39:56.595Z,12.90
2022-11-14T08:42:42.287Z,13.00
2022-11-14T08:45:28.605Z,13.00
2022-11-14T08:48:14.245Z,13.10
2022-11-14T08:51:05.519Z,13.10
2022-11-14T08:53:52.593Z,13.10
2022-11-14T08:56:38.554Z,13.20
2022-11-14T08:59:23.820Z,13.30
2022-11-14T09:02:13.736Z,13.40
2022-11-14T09:04:59.454Z,13.50
2022-11-14T09:07:45.022Z,13.40
2022-11-14T09:10:30.587Z,13.50
2022-11-14T09:13:17.201Z,13.50
2022-11-14T09:16:03.027Z,13.50
2022-11-14T09:18:48.657Z,13.60
2022-11-14T09:21:33.891Z,13.60
2022-11-14T09:24:19.738Z,13.70
2022-11-14T09:27:05.563Z,13.70
2022-11-14T09:29:50.848Z,13.80
2022-11-14T09:32:36.328Z,13.90
2022-11-14T09:35:21.798Z,13.90
2022-11-14T09:38:10.784Z,14.00
2022-11-14T09:41:25.167Z,14.10
2022-11-14T09:44:45.000Z,14.20
2022-11-14T09:47:37.415Z,14.40
2022-11-14T09:50:37.106Z,14.50
2022-11-14T09:53:34.258Z,14.60
2022-11-14T09:56:25.681Z,14.60
2022-11-14T09:59:12.672Z,14.70
2022-11-14T10:02:19.391Z,14.80
2022-11-14T10:05:23.912Z,14.90
2022-11-14T10:08:34.234Z,15.00
2022-11-14T10:11:31.556Z,15.20
2022-11-14T10:14:41.103Z,15.30
2022-11-14T10:17:47.432Z,15.40
2022-11-14T10:20:53.707Z,15.40
2022-11-14T10:23:54.938Z,15.50
2022-11-14T10:26:53.002Z,15.60
2022-11-14T10:30:03.598Z,15.70
2022-11-14T10:33:10.636Z,15.90
2022-11-14T10:36:20.787Z,16.10
2022-11-14T10:39:23.411Z,16.40
2022-11-14T10:42:30.627Z,16.60
2022-11-14T10:45:26.901Z,16.90
2022-11-14T10:48:24.632Z,17.20
2022-11-14T10:51:22.219Z,17.50
2022-11-14T10:54:30.574Z,17.70
2022-11-14T10:57:21.823Z,18.10
2022-11-14T11:00:16.418Z,19.90
2022-11-14T11:03:01.932Z,21.80
2022-11-14T11:05:51.911Z,23.10
2022-11-14T11:09:02.375Z,23.60
2022-11-14T11:11:57.321Z,24.30
2022-11-14T11:14:43.477Z,24.20
2022-11-14T11:17:35.854Z,23.50
2022-11-14T11:20:29.443Z,22.90
2022-11-14T11:23:25.239Z,22.20
2022-11-14T11:26:22.926Z,21.40
2022-11-14T11:29:11.339Z,21.00
2022-11-14T11:31:58.551Z,20.60
2022-11-14T11:34:44.619Z,20.30
2022-11-14T11:37:35.988Z,20.20
2022-11-14T11:40:25.549Z,20.20
2022-11-14T11:46:49.417Z,20.60
2022-11-14T11:49:51.723Z,20.80
2022-11-14T11:53:01.302Z,21.10
2022-11-14T11:55:51.233Z,22.20
2022-11-14T11:58:56.565Z,23.60
2022-11-14T12:01:42.050Z,25.00
2022-11-14T12:04:27.207Z,26.40
2022-11-14T12:07:18.358Z,27.30
2022-11-14T12:10:13.260Z,28.00
2022-11-14T12:13:24.684Z,27.90
2022-11-14T12:16:39.835Z,28.00
2022-11-14T12:19:46.290Z,28.00
2022-11-14T12:23:05.867Z,27.90
2022-11-14T12:26:11.033Z,27.50
2022-11-14T12:29:22.577Z,27.20
2022-11-14T12:32:17.647Z,26.80
2022-11-14T12:35:14.096Z,25.90
2022-11-14T12:38:05.695Z,25.70
2022-11-14T12:40:57.758Z,25.90
2022-11-14T12:43:43.996Z,26.10
2022-11-14T12:47:05.418Z,26.40
2022-11-14T12:49:53.994Z,26.60
2022-11-14T12:52:51.103Z,26.80
2022-11-14T12:55:36.631Z,26.30
2022-11-14T12:58:48.142Z,25.90
2022-11-14T13:01:40.793Z,25.70
2022-11-14T13:04:40.997Z,25.70
2022-11-14T13:07:34.111Z,25.80
2022-11-14T13:10:30.134Z,25.60
2022-11-14T13:13:34.971Z,25.40
2022-11-14T13:16:43.073Z,25.30
2022-11-14T13:19:47.338Z,25.50
2022-11-14T13:22:37.185Z,25.40
2022-11-14T13:25:23.530Z,25.20
2022-11-14T13:28:27.788Z,25.30
2022-11-14T13:31:16.205Z,25.60
2022-11-14T13:34:20.744Z,25.90
2022-11-14T13:37:24.827Z,25.60
2022-11-14T13:40:16.676Z,25.40
2022-11-14T13:43:11.233Z,25.40
2022-11-14T13:46:19.827Z,25.50
2022-11-14T13:49:17.262Z,25.60
2022-11-14T13:52:04.241Z,25.10
2022-11-14T13:54:51.524Z,24.40
2022-11-14T13:58:09.150Z,24.40
2022-11-14T14:01:06.185Z,24.70
2022-11-14T14:03:57.601Z,24.80
2022-11-14T14:06:48.692Z,25.00
2022-11-14T14:09:50.334Z,24.90
2022-11-14T14:12:50.832Z,25.00
2022-11-14T14:15:55.376Z,24.80
2022-11-14T14:19:03.249Z,24.50
2022-11-14T14:22:04.451Z,24.00
2022-11-14T14:25:08.536Z,23.20
2022-11-14T14:28:09.513Z,22.10
2022-11-14T14:31:09.593Z,21.30
2022-11-14T14:33:54.955Z,21.00
2022-11-14T14:36:53.177Z,20.30
2022-11-14T14:39:38.268Z,19.50
2022-11-14T14:42:24.057Z,18.70
2022-11-14T14:45:18.124Z,18.20
2022-11-14T14:48:11.210Z,17.70
2022-11-14T14:51:00.465Z,17.20
2022-11-14T14:53:54.092Z,16.80
2022-11-14T14:56:39.921Z,16.50
2022-11-14T14:59:27.690Z,16.30
2022-11-14T15:02:23.445Z,16.10
2022-11-14T15:05:09.000Z,16.00
2022-11-14T15:07:59.210Z,15.80
2022-11-14T15:10:45.132Z,15.70
2022-11-14T15:13:30.907Z,15.60
2022-11-14T15:16:16.531Z,15.40
2022-11-14T15:19:02.696Z,15.40
2022-11-14T15:22:01.118Z,15.30
2022-11-14T15:25:04.990Z,15.20
2022-11-14T15:27:51.961Z,15.20
2022-11-14T15:30:37.186Z,15.10
2022-11-14T15:33:34.666Z,15.00
2022-11-14T15:36:19.734Z,14.90
2022-11-14T15:39:06.083Z,14.80
2022-11-14T15:42:11.255Z,14.60
2022-11-14T15:44:56.553Z,14.50
2022-11-14T15:47:42.108Z,14.30
2022-11-14T15:50:33.310Z,14.20
2022-11-14T15:53:23.781Z,14.20
2022-11-14T15:56:12.847Z,14.10
2022-11-14T15:58:59.163Z,14.00
2022-11-14T16:01:47.378Z,14.00
2022-11-14T16:04:37.090Z,13.90
2022-11-14T16:07:22.888Z,13.90
2022-11-14T16:10:20.238Z,13.80
2022-11-14T16:13:06.703Z,13.80
2022-11-14T16:15:52.101Z,13.70
2022-11-14T16:18:37.684Z,13.60
2022-11-14T16:21:23.240Z,13.60
2022-11-14T16:24:23.327Z,13.50
2022-11-14T16:27:09.585Z,13.40
2022-11-14T16:29:55.251Z,13.30
2022-11-14T16:32:41.771Z,13.20
2022-11-14T16:35:27.416Z,13.20
2022-11-14T16:38:13.387Z,13.10
2022-11-14T16:41:00.253Z,13.00
2022-11-14T16:43:45.598Z,12.90
2022-11-14T16:46:30.917Z,12.80
2022-11-14T16:49:17.004Z,12.80
2022-11-14T16:52:07.118Z,12.70
2022-11-14T16:54:52.287Z,12.60
2022-11-14T16:57:37.681Z,12.50
2022-11-14T17:00:23.301Z,12.40
2022-11-14T17:03:08.550Z,12.30
2022-11-14T17:05:54.193Z,12.20
2022-11-14T17:08:39.789Z,12.20
2022-11-14T17:11:26.180Z,12.10
2022-11-14T17:14:12.288Z,12.00
2022-11-14T17:17:04.304Z,12.00
2022-11-14T17:19:50.063Z,11.90
2022-11-14T17:22:35.639Z,11.90
2022-11-14T17:25:21.215Z,11.80
2022-11-14T17:28:06.346Z,11.80
2022-11-14T17:30:51.905Z,11.70
2022-11-14T17:33:37.914Z,11.60
2022-11-14T17:36:25.027Z,11.60
2022-11-14T17:39:10.514Z,11.60
2022-11-14T17:41:56.489Z,11.50
2022-11-14T17:44:41.911Z,11.50
2022-11-14T17:47:28.027Z,11.50
2022-11-14T17:50:13.532Z,11.50
2022-11-14T17:52:59.182Z,11.40
2022-11-14T17:55:45.408Z,11.40
2022-11-14T17:58:32.370Z,11.40
2022-11-14T18:01:20.789Z,11.30
2022-11-14T18:04:07.505Z,11.30
2022-11-14T18:06:53.647Z,11.30
2022-11-14T18:09:39.754Z,11.20
2022-11-14T18:12:25.268Z,11.20
2022-11-14T18:15:10.875Z,11.20
2022-11-14T18:17:57.511Z,11.20
2022-11-14T18:20:42.816Z,11.10
2022-11-14T18:23:28.381Z,11.10
2022-11-14T18:26:15.983Z,11.10
2022-11-14T18:29:02.422Z,11.10
2022-11-14T18:31:48.377Z,11.00
2022-11-14T18:34:36.893Z,11.00
2022-11-14T18:37:23.102Z,11.00
2022-11-14T18:40:16.188Z,11.00
2022-11-14T18:43:02.360Z,11.00
2022-11-14T18:45:48.068Z,11.00
2022-11-14T18:48:34.073Z,11.00
2022-11-14T18:51:22.318Z,11.00
2022-11-14T18:54:13.198Z,11.10
2022-11-14T18:56:58.643Z,11.10
2022-11-14T18:59:44.158Z,11.10
2022-11-14T19:02:29.845Z,11.10
2022-11-14T19:05:15.296Z,11.10
2022-11-14T19:08:00.527Z,11.10
2022-11-14T19:10:46.176Z,11.00
2022-11-14T19:13:32.069Z,11.00
2022-11-14T19:16:17.760Z,11.00
2022-11-14T19:19:04.570Z,10.90
2022-11-14T19:21:50.632Z,10.90
2022-11-14T19:24:36.327Z,10.80
2022-11-14T19:27:22.007Z,10.80
2022-11-14T19:30:08.258Z,10.70
2022-11-14T19:32:53.569Z,10.70
2022-11-14T19:35:39.468Z,10.70
2022-11-14T19:38:24.821Z,10.60
2022-11-14T19:41:16.528Z,10.60
2022-11-14T19:44:02.838Z,10.60
2022-11-14T19:46:48.482Z,10.60
2022-11-14T19:49:33.965Z,10.50
2022-11-14T19:52:19.479Z,10.50
2022-11-14T19:55:05.439Z,10.40
2022-11-14T19:57:51.117Z,10.30
2022-11-14T20:00:36.533Z,10.30
2022-11-14T20:03:22.098Z,10.20
2022-11-14T20:06:17.635Z,10.20
2022-11-14T20:09:06.984Z,10.20
2022-11-14T20:11:52.319Z,10.20
2022-11-14T20:14:37.931Z,10.10
2022-11-14T20:17:23.410Z,10.10
2022-11-14T20:20:09.159Z,10.10
2022-11-14T20:22:54.779Z,10.10
2022-11-14T20:25:40.898Z,10.10
2022-11-14T20:28:26.349Z,10.00
2022-11-14T20:31:20.972Z,10.00
2022-11-14T20:34:06.753Z,10.00
2022-11-14T20:39:57.618Z,9.90
2022-11-14T20:42:48.570Z,9.90
2022-11-14T20:45:34.318Z,9.90
2022-11-14T20:48:19.651Z,9.90
2022-11-14T20:51:06.194Z,9.90
2022-11-14T20:53:54.234Z,9.90
2022-11-14T20:56:39.772Z,9.80
2022-11-14T20:59:25.469Z,9.70
2022-11-14T21:02:12.597Z,9.70
2022-11-14T21:04:58.578Z,9.70
2022-11-14T21:07:43.808Z,9.60
2022-11-14T21:10:47.737Z,9.70
2022-11-14T21:13:57.299Z,9.60
2022-11-14T21:16:42.641Z,9.60
2022-11-14T21:19:31.065Z,9.60
2022-11-14T21:22:16.467Z,9.60
2022-11-14T21:25:01.944Z,9.50
2022-11-14T21:27:47.483Z,9.50
2022-11-14T21:30:34.453Z,9.50
2022-11-14T21:33:20.024Z,9.50
2022-11-14T21:36:22.865Z,9.50
2022-11-14T21:39:14.927Z,9.50
2022-11-14T21:42:01.362Z,9.40
2022-11-14T21:44:46.686Z,9.40
2022-11-14T21:47:33.689Z,9.30
2022-11-14T21:50:18.914Z,9.30
2022-11-14T21:53:18.862Z,9.20
2022-11-14T21:56:24.549Z,9.20
2022-11-14T21:59:15.344Z,9.20
2022-11-14T22:02:19.810Z,9.20
2022-11-14T22:05:06.382Z,9.20
2022-11-14T22:07:51.928Z,9.10
2022-11-14T22:10:37.579Z,9.20
2022-11-14T22:13:23.091Z,9.20
2022-11-14T22:16:10.050Z,9.20
2022-11-14T22:19:00.497Z,9.20
2022-11-14T22:21:50.516Z,9.20
2022-11-14T22:24:35.882Z,9.20
2022-11-14T22:27:21.374Z,9.20
2022-11-14T22:30:07.527Z,9.20
2022-11-14T22:32:53.193Z,9.20
2022-11-14T22:35:38.633Z,9.20
2022-11-14T22:38:24.152Z,9.20
2022-11-14T22:41:15.841Z,9.20
2022-11-14T22:44:01.972Z,9.20
2022-11-14T22:46:47.301Z,9.20
2022-11-14T22:49:32.987Z,9.20
2022-11-14T22:52:18.473Z,9.20
2022-11-14T22:55:04.129Z,9.10
2022-11-14T22:57:49.253Z,9.10
2022-11-14T23:00:34.729Z,9.10
2022-11-14T23:03:21.411Z,9.10
2022-11-14T23:06:11.681Z,9.10
2022-11-14T23:08:58.045Z,9.10
2022-11-14T23:11:43.818Z,9.10
2022-11-14T23:14:29.227Z,9.10
2022-11-14T23:17:14.738Z,9.10
2022-11-14T23:20:00.316Z,9.10
2022-11-14T23:22:46.341Z,9.10
2022-11-14T23:25:31.817Z,9.10
2022-11-14T23:28:17.476Z,9.10
2022-11-14T23:31:03.476Z,9.10
2022-11-14T23:33:50.603Z,9.20
2022-11-14T23:36:35.677Z,9.10
2022-11-14T23:39:21.172Z,9.20
2022-11-14T23:42:06.746Z,9.10
2022-11-14T23:44:52.263Z,9.10
2022-11-14T23:47:37.905Z,9.10
2022-11-14T23:50:23.123Z,9.00
2022-11-14T23:53:09.002Z,9.00
2022-11-14T23:55:57.601Z,9.00
2022-11-14T23:58:43.066Z,9.00
